Time;durP1;ratioP1;P1;durP2;ratioP2;P2;SDS_P1;SDS_P2;PMS_P1;PMS_P2;Temp;Humidity;BMP_temperature;BMP_pressure;BME280_temperature;BME280_humidity;BME280_pressure;Samples;Min_cycle;Max_cycle;Signal;HPM_P1;HPM_P2
2020/12/20 00:02:19;;;;;;;1.30;1.13;;;;;;;23.89;32.86;101437.22;5027759;23;107209;-50
2020/12/20 00:04:45;;;;;;;1.67;0.70;;;;;;;23.89;32.83;101439.03;5008307;28;97632;-49
2020/12/20 00:07:10;;;;;;;0.93;0.60;;;;;;;23.89;33.10;101433.69;5026123;28;98534;-48
2020/12/20 00:09:36;;;;;;;1.67;0.90;;;;;;;23.88;32.80;101430.13;5024546;28;111999;-48
2020/12/20 00:12:02;;;;;;;1.08;0.65;;;;;;;23.88;33.14;101429.28;5006107;28;111581;-48
2020/12/20 00:14:28;;;;;;;0.93;0.70;;;;;;;23.89;32.88;101433.69;4973715;28;97998;-48
2020/12/20 00:16:55;;;;;;;1.15;0.80;;;;;;;23.87;32.76;101436.41;5002230;28;97773;-48
2020/12/20 00:19:21;;;;;;;0.98;0.80;;;;;;;23.87;32.86;101435.53;5020050;28;109377;-48
2020/12/20 00:21:47;;;;;;;1.20;0.80;;;;;;;23.88;32.81;101434.59;4999507;28;96872;-48
2020/12/20 00:24:12;;;;;;;0.90;0.70;;;;;;;23.87;32.76;101427.53;4985575;28;97447;-48
2020/12/20 00:26:42;;;;;;;1.20;0.70;;;;;;;23.86;32.79;101424.00;5020026;28;103399;-48
2020/12/20 00:29:07;;;;;;;1.20;1.00;;;;;;;23.87;33.15;101414.22;5002562;28;113722;-48
2020/12/20 00:31:32;;;;;;;0.90;0.77;;;;;;;23.86;32.99;101418.66;5016079;28;111733;-48
2020/12/20 00:33:58;;;;;;;0.95;0.70;;;;;;;23.87;32.88;101408.91;5015382;28;97651;-48
2020/12/20 00:36:23;;;;;;;1.15;1.05;;;;;;;23.87;32.99;101419.56;5020961;28;126392;-48
2020/12/20 00:38:49;;;;;;;0.93;0.60;;;;;;;23.86;32.88;101418.66;5016071;28;107342;-48
2020/12/20 00:41:14;;;;;;;1.10;0.60;;;;;;;23.88;32.81;101426.59;5017770;28;114321;-48
2020/12/20 00:43:43;;;;;;;1.08;0.70;;;;;;;23.86;32.84;101420.47;5005439;28;97804;-48
2020/12/20 00:46:08;;;;;;;1.92;0.70;;;;;;;23.86;32.81;101413.34;5020022;28;97457;-48
2020/12/20 00:48:34;;;;;;;1.45;0.90;;;;;;;23.86;32.81;101417.81;5001356;28;111887;-48
2020/12/20 00:51:00;;;;;;;0.93;0.82;;;;;;;23.86;32.82;101415.13;4977506;28;97009;-48
2020/12/20 00:53:26;;;;;;;0.85;0.70;;;;;;;23.86;33.12;101428.47;4981342;28;97642;-48
2020/12/20 00:55:52;;;;;;;1.27;1.00;;;;;;;23.86;33.18;101428.47;5019026;28;98339;-48
2020/12/20 00:58:17;;;;;;;0.90;0.63;;;;;;;23.85;33.09;101429.38;5019648;28;99224;-48
2020/12/20 01:00:42;;;;;;;1.05;0.93;;;;;;;23.85;33.14;101422.28;4979321;28;96843;-48
2020/12/20 01:03:08;;;;;;;1.38;0.70;;;;;;;23.84;32.93;101417.84;5000298;28;119311;-48
2020/12/20 01:05:33;;;;;;;1.10;0.82;;;;;;;23.84;32.97;101417.84;4998127;28;100126;-48
2020/12/20 01:07:59;;;;;;;1.80;0.90;;;;;;;23.85;33.05;101424.94;5001866;28;96850;-48
2020/12/20 01:10:24;;;;;;;1.08;0.60;;;;;;;23.83;32.74;101410.81;5001413;28;96874;-48
2020/12/20 01:12:50;;;;;;;0.90;0.63;;;;;;;23.83;32.76;101413.47;5000165;28;99070;-49
2020/12/20 01:15:21;;;;;;;1.05;0.63;;;;;;;23.84;32.81;101412.53;5003987;28;98394;-48
2020/12/20 01:17:49;;;;;;;0.75;0.60;;;;;;;23.83;32.97;101413.47;4999250;28;96978;-48
2020/12/20 01:20:17;;;;;;;1.50;0.93;;;;;;;23.83;32.97;101424.13;5002303;28;96967;-48
2020/12/20 01:22:43;;;;;;;1.00;0.80;;;;;;;23.83;32.75;101424.13;4999071;28;100440;-48
2020/12/20 01:25:11;;;;;;;1.20;0.60;;;;;;;23.83;33.12;101437.44;4998143;28;98402;-48
2020/12/20 01:27:36;;;;;;;0.75;0.55;;;;;;;23.83;32.81;101432.13;5014151;28;96833;-49
2020/12/20 01:30:03;;;;;;;0.88;0.77;;;;;;;23.82;33.08;101424.16;5000927;28;96763;-48
2020/12/20 01:32:29;;;;;;;1.15;0.75;;;;;;;23.82;32.96;101421.50;4979492;28;98655;-48
2020/12/20 01:35:04;;;;;;;1.20;0.73;;;;;;;23.82;32.85;101426.84;4994635;28;99703;-49
2020/12/20 01:37:31;;;;;;;0.80;0.50;;;;;;;23.82;33.01;101424.16;5002218;28;96871;-48
2020/12/20 01:39:57;;;;;;;1.40;0.98;;;;;;;23.82;33.17;101429.50;5017524;28;96848;-48
2020/12/20 01:42:23;;;;;;;1.33;0.70;;;;;;;23.81;33.14;101439.25;5013712;28;99390;-48
2020/12/20 01:44:50;;;;;;;1.05;0.60;;;;;;;23.80;33.09;101434.88;5000499;28;98461;-48
2020/12/20 01:47:19;;;;;;;1.00;0.70;;;;;;;23.80;32.71;101429.53;4996605;28;97687;-48
2020/12/20 01:49:45;;;;;;;1.45;0.80;;;;;;;23.82;32.62;101437.47;5022584;28;97181;-48
2020/12/20 01:52:10;;;;;;;1.00;0.65;;;;;;;23.81;33.02;101439.25;4995169;28;99700;-48
2020/12/20 01:54:36;;;;;;;1.00;0.77;;;;;;;23.82;33.10;101441.00;4981505;28;97407;-48
2020/12/20 01:57:08;;;;;;;1.10;0.90;;;;;;;23.81;32.92;101436.59;4996035;28;97368;-48
2020/12/20 01:59:59;;;;;;;1.20;0.68;;;;;;;23.82;32.79;101440.16;4987456;28;96902;-49
2020/12/20 02:02:30;;;;;;;1.20;0.80;;;;;;;23.82;32.98;101445.47;5022375;28;97271;-48
2020/12/20 02:04:57;;;;;;;1.10;0.75;;;;;;;23.81;32.98;101447.25;4973401;28;99355;-48
2020/12/20 02:07:22;;;;;;;1.58;0.73;;;;;;;23.81;33.07;101441.06;5001398;28;97140;-48
2020/12/20 02:09:53;;;;;;;0.70;0.57;;;;;;;23.81;33.10;101443.72;5003130;28;96940;-49
2020/12/20 02:12:27;;;;;;;0.80;0.60;;;;;;;23.80;32.76;101450.84;4998462;28;97637;-49
2020/12/20 02:15:16;;;;;;;1.27;0.57;;;;;;;23.81;33.07;101449.91;4997545;28;97494;-48
2020/12/20 02:17:41;;;;;;;0.95;0.50;;;;;;;23.80;32.91;101450.84;4998546;28;96761;-48
2020/12/20 02:20:07;;;;;;;1.20;0.63;;;;;;;23.80;32.71;101453.50;4996097;28;97042;-48
2020/12/20 02:22:58;;;;;;;0.70;0.60;;;;;;;23.80;32.92;101444.59;5009631;28;99461;-48
2020/12/20 02:25:29;;;;;;;0.80;0.70;;;;;;;23.80;33.10;101453.50;4996454;28;97397;-48
2020/12/20 02:28:01;;;;;;;0.83;0.70;;;;;;;23.80;33.05;101444.59;4994779;28;96845;-48
2020/12/20 02:30:32;;;;;;;1.10;0.70;;;;;;;23.79;32.84;101446.41;4994306;28;97001;-48
2020/12/20 02:32:59;;;;;;;1.23;0.60;;;;;;;23.79;33.14;101448.19;5016015;28;99843;-48
2020/12/20 02:35:24;;;;;;;1.00;0.75;;;;;;;23.80;32.91;101449.91;4997554;28;98537;-48
2020/12/20 02:37:51;;;;;;;0.98;0.60;;;;;;;23.78;33.03;101447.34;5017061;28;96863;-48
2020/12/20 02:40:16;;;;;;;0.80;0.70;;;;;;;23.77;33.06;101446.44;4982085;28;96936;-48
2020/12/20 02:42:49;;;;;;;1.27;0.57;;;;;;;23.79;32.77;101451.72;5001539;28;97708;-49
2020/12/20 02:45:14;;;;;;;1.00;0.70;;;;;;;23.77;33.06;101443.78;5018127;28;110115;-48
2020/12/20 02:47:40;;;;;;;1.33;0.90;;;;;;;23.78;33.12;101444.69;4998061;28;96696;-48
2020/12/20 02:50:05;;;;;;;1.17;0.77;;;;;;;23.76;32.72;101438.50;5003754;28;96909;-48
2020/12/20 02:52:37;;;;;;;1.27;0.80;;;;;;;23.77;32.97;101435.78;4996182;28;97876;-48
2020/12/20 02:55:04;;;;;;;0.90;0.60;;;;;;;23.77;32.98;101437.59;5016523;28;97977;-48
2020/12/20 02:57:37;;;;;;;1.00;0.70;;;;;;;23.79;33.11;101440.22;5002368;28;96733;-48
2020/12/20 03:00:20;;;;;;;1.42;0.93;;;;;;;23.78;33.06;101431.34;4997405;28;96840;-48
2020/12/20 03:02:45;;;;;;;0.63;0.60;;;;;;;23.77;32.78;101430.47;5001094;28;99507;-48
2020/12/20 03:05:11;;;;;;;1.58;1.00;;;;;;;23.77;32.99;101429.59;4998664;28;97209;-48
2020/12/20 03:07:37;;;;;;;1.42;0.60;;;;;;;23.78;33.10;101431.34;4996177;28;97312;-48
2020/12/20 03:10:04;;;;;;;1.27;0.70;;;;;;;23.77;32.80;101433.13;5002374;28;96940;-48
2020/12/20 03:12:30;;;;;;;1.35;0.70;;;;;;;23.77;32.70;101435.78;4998111;28;98761;-48
2020/12/20 03:14:56;;;;;;;1.60;1.10;;;;;;;23.79;33.03;101435.75;5001181;28;99305;-48
2020/12/20 03:17:21;;;;;;;1.50;0.70;;;;;;;23.80;32.91;101441.94;4995997;28;96816;-48
2020/12/20 03:19:48;;;;;;;1.13;0.60;;;;;;;23.79;33.11;101434.88;4995195;28;98188;-48
2020/12/20 03:22:16;;;;;;;0.80;0.60;;;;;;;23.80;33.04;101436.59;5001422;28;97665;-48
2020/12/20 03:24:58;;;;;;;1.10;0.68;;;;;;;23.82;33.14;101442.81;5002005;28;98493;-48
2020/12/20 03:27:42;;;;;;;;;;;;;;;23.81;33.04;101441.06;5018247;28;96804;-48
2020/12/20 03:30:37;;;;;;;0.82;0.73;;;;;;;23.85;32.96;101448.00;5001811;28;97169;-48
2020/12/20 03:33:13;;;;;;;1.33;0.70;;;;;;;23.85;32.75;101450.69;4984459;28;97719;-48
2020/12/20 03:35:55;;;;;;;1.05;0.95;;;;;;;23.86;32.99;101444.44;4995914;28;97501;-48
2020/12/20 03:38:21;;;;;;;0.90;0.60;;;;;;;23.85;32.75;101446.25;4985835;28;108640;-48
2020/12/20 03:40:48;;;;;;;0.98;0.88;;;;;;;23.86;32.84;101449.78;5004104;28;97322;-48
2020/12/20 03:43:16;;;;;;;0.52;0.50;;;;;;;23.86;33.12;101449.78;5002073;28;98710;-48
2020/12/20 03:45:50;;;;;;;1.10;1.00;;;;;;;23.86;32.81;101444.44;5004988;28;97379;-49
2020/12/20 03:48:23;;;;;;;0.90;0.70;;;;;;;23.87;32.98;101447.06;4998601;28;96816;-48
2020/12/20 03:50:48;;;;;;;1.02;0.90;;;;;;;23.87;32.92;101452.38;5001320;28;96845;-48
2020/12/20 03:53:14;;;;;;;0.93;0.60;;;;;;;23.87;32.75;101447.06;4985630;28;99840;-48
2020/12/20 03:55:48;;;;;;;1.58;0.93;;;;;;;23.89;32.81;101444.34;4980574;28;100113;-48
2020/12/20 03:58:13;;;;;;;1.27;0.70;;;;;;;23.88;32.87;101445.25;5016521;28;97097;-48
2020/12/20 04:00:39;;;;;;;1.35;0.73;;;;;;;23.87;32.94;101447.06;5016644;28;96905;-48
2020/12/20 04:03:19;;;;;;;1.00;0.70;;;;;;;23.89;33.05;101449.69;4999521;28;97705;-48
2020/12/20 04:05:46;;;;;;;0.95;0.60;;;;;;;23.88;33.05;101453.25;4998863;28;97664;-48
2020/12/20 04:08:12;;;;;;;1.23;0.57;;;;;;;23.87;33.04;101451.53;5014438;28;96883;-49
2020/12/20 04:10:44;;;;;;;1.00;0.80;;;;;;;23.88;33.01;101453.25;4998173;28;96812;-48
2020/12/20 04:13:10;;;;;;;1.50;0.70;;;;;;;23.87;32.67;101451.53;5010378;28;100358;-48
2020/12/20 04:15:37;;;;;;;0.65;0.40;;;;;;;23.87;33.08;101446.19;5007469;28;97408;-48
2020/12/20 04:18:05;;;;;;;0.93;0.75;;;;;;;23.86;33.04;101441.78;5003643;28;97862;-48
2020/12/20 04:20:31;;;;;;;1.40;0.60;;;;;;;23.85;33.07;101448.91;5004174;28;97037;-48
2020/12/20 04:23:01;;;;;;;1.00;0.73;;;;;;;23.86;32.64;101453.28;4998343;28;98700;-49
2020/12/20 04:25:36;;;;;;;1.30;0.80;;;;;;;23.87;32.79;101448.88;5002199;28;98559;-48
2020/12/20 04:28:16;;;;;;;0.55;0.40;;;;;;;23.87;32.62;101444.41;4999795;28;96702;-48
2020/12/20 04:30:42;;;;;;;1.02;0.60;;;;;;;23.88;32.98;101439.94;5022254;28;96784;-49
2020/12/20 04:33:17;;;;;;;1.00;0.70;;;;;;;23.88;32.75;101445.25;4987855;28;97647;-48
2020/12/20 04:35:45;;;;;;;1.00;0.70;;;;;;;23.88;33.05;101445.25;4980536;28;97644;-48
2020/12/20 04:38:12;;;;;;;1.10;0.70;;;;;;;23.89;32.62;101441.69;5002796;28;97425;-48
2020/12/20 04:40:41;;;;;;;0.85;0.70;;;;;;;23.90;33.10;101443.41;5003476;28;96674;-48
2020/12/20 04:43:08;;;;;;;0.90;0.60;;;;;;;23.89;33.06;101439.88;4986779;28;100429;-49
2020/12/20 04:45:34;;;;;;;1.00;0.50;;;;;;;23.89;33.10;101434.56;5012105;28;99724;-48
2020/12/20 04:48:04;;;;;;;1.33;0.73;;;;;;;23.91;32.97;101442.50;5016846;28;96764;-48
2020/12/20 04:50:37;;;;;;;1.00;0.60;;;;;;;23.91;32.67;101438.03;4984978;28;97060;-48
2020/12/20 04:53:02;;;;;;;0.90;0.60;;;;;;;23.92;32.84;101442.44;4980601;28;99521;-48
2020/12/20 04:55:44;;;;;;;1.00;0.50;;;;;;;23.93;32.68;101444.19;4971956;28;99730;-48
2020/12/20 04:58:18;;;;;;;0.65;0.40;;;;;;;23.93;32.83;101441.50;4972370;28;97400;-49
2020/12/20 05:00:44;;;;;;;1.00;0.80;;;;;;;23.93;33.06;101441.50;4966727;28;96998;-48
2020/12/20 05:03:11;;;;;;;0.85;0.70;;;;;;;23.95;32.61;101444.13;4981589;28;97824;-48
2020/12/20 05:05:39;;;;;;;1.10;0.65;;;;;;;23.95;33.02;101444.13;4999202;28;98625;-48
2020/12/20 05:08:05;;;;;;;1.05;0.50;;;;;;;23.95;33.00;101445.00;4997315;28;97452;-48
2020/12/20 05:10:38;;;;;;;0.60;0.57;;;;;;;23.95;32.65;101450.31;4963821;28;98053;-48
2020/12/20 05:13:04;;;;;;;0.95;0.60;;;;;;;23.97;32.85;101452.94;4998779;28;98640;-48
2020/12/20 05:15:32;;;;;;;1.00;0.50;;;;;;;23.98;32.74;101448.50;4996105;28;99624;-48
2020/12/20 05:18:35;;;;;;;1.27;0.70;;;;;;;23.98;32.71;101457.34;4924041;28;97033;-48
2020/12/20 05:21:10;;;;;;;1.05;0.65;;;;;;;23.99;32.90;101458.22;4922590;28;98066;-49
2020/12/20 05:23:37;;;;;;;0.70;0.52;;;;;;;23.98;33.00;101460.03;4957690;28;99969;-48
2020/12/20 05:26:31;;;;;;;1.13;0.65;;;;;;;23.98;32.71;101469.81;4991362;28;98661;-48
2020/12/20 05:29:10;;;;;;;0.90;0.60;;;;;;;23.98;32.63;101476.00;4980293;28;96741;-48
2020/12/20 05:31:38;;;;;;;1.45;0.60;;;;;;;24.00;32.97;101463.50;4996085;28;96920;-48
2020/12/20 05:34:40;;;;;;;1.10;0.90;;;;;;;24.01;32.68;101467.03;4946121;28;98971;-48
2020/12/20 05:37:09;;;;;;;0.80;0.50;;;;;;;23.99;32.72;101467.06;4995612;28;98332;-49
2020/12/20 05:39:57;;;;;;;1.13;0.50;;;;;;;24.00;32.82;101457.31;5013086;28;96724;-49
2020/12/20 05:43:14;;;;;;;1.23;0.70;;;;;;;23.99;32.65;101460.88;4998631;28;96993;-48
2020/12/20 05:45:43;;;;;;;1.23;0.60;;;;;;;24.00;32.93;101460.84;5007987;28;99809;-48
2020/12/20 05:48:20;;;;;;;0.95;0.60;;;;;;;24.00;32.62;101462.63;4993593;28;97417;-48
2020/12/20 05:50:53;;;;;;;0.95;0.85;;;;;;;24.00;32.59;101457.31;4998283;28;96946;-49
2020/12/20 05:53:29;;;;;;;0.80;0.60;;;;;;;23.99;32.84;101464.41;5013529;28;97085;-48
2020/12/20 05:55:58;;;;;;;0.98;0.82;;;;;;;23.99;33.04;101463.53;5012771;28;97599;-48
2020/12/20 05:58:27;;;;;;;0.95;0.50;;;;;;;23.98;32.98;101459.16;5012660;28;126623;-48
2020/12/20 06:00:52;;;;;;;1.25;0.73;;;;;;;23.98;32.56;101460.03;4978276;28;112172;-48
2020/12/20 06:03:17;;;;;;;1.75;0.70;;;;;;;23.97;32.92;101460.94;5018265;23;118042;-54
2020/12/20 06:05:45;;;;;;;1.35;0.70;;;;;;;23.98;32.57;101469.81;5017806;28;127310;-55
2020/12/20 06:08:21;;;;;;;0.80;0.40;;;;;;;23.98;32.69;101469.81;4992007;28;111126;-55
2020/12/20 06:10:47;;;;;;;0.90;0.80;;;;;;;23.99;32.88;101472.41;5016672;28;97065;-55
2020/12/20 06:13:18;;;;;;;0.80;0.60;;;;;;;23.99;32.97;101477.72;4961943;28;97037;-55
2020/12/20 06:15:44;;;;;;;0.90;0.50;;;;;;;23.99;32.85;101480.41;5000863;28;97558;-55
2020/12/20 06:18:34;;;;;;;0.80;0.50;;;;;;;23.97;32.69;101484.03;4998599;28;119790;-55
2020/12/20 06:21:01;;;;;;;0.93;0.60;;;;;;;24.00;32.64;101482.16;4977078;28;98644;-55
2020/12/20 06:23:32;;;;;;;0.85;0.60;;;;;;;24.01;32.93;101480.34;4983529;28;96765;-55
2020/12/20 06:25:59;;;;;;;0.93;0.80;;;;;;;24.02;32.71;101495.41;4991416;28;98697;-55
2020/12/20 06:28:26;;;;;;;0.85;0.57;;;;;;;24.02;32.66;101493.63;5004544;28;98708;-55
2020/12/20 06:30:51;;;;;;;1.33;0.88;;;;;;;24.02;32.79;101493.63;4998016;28;97490;-55
2020/12/20 06:33:34;;;;;;;0.70;0.50;;;;;;;24.02;32.62;101493.63;4980664;28;97088;-55
2020/12/20 06:36:10;;;;;;;0.80;0.70;;;;;;;24.03;32.96;101494.47;4997557;28;97459;-55
2020/12/20 06:38:36;;;;;;;1.50;0.60;;;;;;;24.05;32.83;101492.66;5002811;28;97288;-55
2020/12/20 06:41:02;;;;;;;0.80;0.50;;;;;;;24.05;32.78;101500.66;4992628;28;117489;-55
2020/12/20 06:43:35;;;;;;;1.45;0.63;;;;;;;24.06;32.87;101497.91;4996228;28;96734;-55
2020/12/20 06:46:01;;;;;;;1.27;0.85;;;;;;;24.07;32.92;101502.34;4998563;28;98049;-55
2020/12/20 06:48:33;;;;;;;1.10;0.50;;;;;;;24.08;32.60;101493.44;5001617;28;97210;-55
2020/12/20 06:51:00;;;;;;;0.87;0.50;;;;;;;24.09;32.53;101495.16;4980556;28;96889;-55
2020/12/20 06:53:51;;;;;;;0.70;0.50;;;;;;;24.09;32.87;101496.97;4984500;28;96963;-55
2020/12/20 06:56:24;;;;;;;0.82;0.52;;;;;;;24.12;32.91;101505.72;4993367;28;97440;-53
2020/12/20 06:58:50;;;;;;;2.33;0.60;;;;;;;24.13;32.84;101507.47;4994751;28;97417;-52
2020/12/20 07:01:35;;;;;;;2.20;0.88;;;;;;;24.11;32.88;101505.78;4996129;28;104894;-52
2020/12/20 07:04:01;;;;;;;6.20;0.90;;;;;;;24.14;32.85;101503.00;4978818;28;97156;-52
2020/12/20 07:06:26;;;;;;;3.08;0.70;;;;;;;24.14;32.98;101495.00;4994238;28;127578;-52
2020/12/20 07:08:59;;;;;;;2.08;0.90;;;;;;;24.15;32.71;101504.72;4996290;28;97369;-52
2020/12/20 07:11:25;;;;;;;6.03;0.90;;;;;;;24.17;32.65;101510.91;4998488;28;97127;-53
2020/12/20 07:13:54;;;;;;;4.03;0.90;;;;;;;24.19;32.67;101508.16;4980650;28;97040;-52
2020/12/20 07:16:23;;;;;;;5.15;1.10;;;;;;;24.20;32.66;101507.25;4979085;28;97497;-52
2020/12/20 07:18:52;;;;;;;2.28;0.90;;;;;;;24.20;32.98;101513.44;4978840;28;97556;-53
2020/12/20 07:21:18;;;;;;;8.52;1.73;;;;;;;24.20;32.89;101510.78;4994358;28;97994;-53
2020/12/20 07:23:46;;;;;;;3.88;0.70;;;;;;;24.21;32.89;101517.88;5011341;28;117528;-52
2020/12/20 07:26:12;;;;;;;2.88;1.00;;;;;;;24.22;33.03;101521.41;5012002;28;97412;-52
2020/12/20 07:28:37;;;;;;;3.65;1.00;;;;;;;24.22;32.63;101524.06;5011848;28;124293;-52
2020/12/20 07:31:04;;;;;;;2.35;0.93;;;;;;;24.23;32.59;101525.81;5012092;28;97301;-52
2020/12/20 07:33:30;;;;;;;2.97;0.80;;;;;;;24.22;32.55;101522.25;4994198;28;96866;-52
2020/12/20 07:35:56;;;;;;;3.17;1.10;;;;;;;24.23;32.69;101524.00;5011074;28;99365;-52
2020/12/20 07:38:21;;;;;;;3.75;1.02;;;;;;;24.23;32.78;101529.34;5011750;28;97236;-52
2020/12/20 07:40:47;;;;;;;5.00;1.20;;;;;;;24.24;32.93;101527.53;5001021;28;97590;-52
2020/12/20 07:43:12;;;;;;;1.67;0.80;;;;;;;24.23;32.87;101521.34;4993378;28;116722;-52
2020/12/20 07:45:38;;;;;;;2.42;1.02;;;;;;;24.23;32.79;101523.16;4996625;28;105286;-52
2020/12/20 07:48:03;;;;;;;2.10;0.98;;;;;;;24.23;32.96;101515.16;4998620;28;126659;-52
2020/12/20 07:50:29;;;;;;;2.35;1.02;;;;;;;24.22;32.74;101516.94;4997977;28;97983;-52
2020/12/20 07:52:54;;;;;;;3.88;0.90;;;;;;;24.22;32.78;101516.94;4997845;28;96580;-52
2020/12/20 07:55:20;;;;;;;2.20;0.80;;;;;;;24.23;32.88;101525.81;5000721;28;126963;-52
2020/12/20 07:57:47;;;;;;;3.40;0.70;;;;;;;24.22;32.61;101530.25;4983633;28;100582;-52
2020/12/20 08:00:15;;;;;;;1.90;1.08;;;;;;;24.22;32.98;101526.72;5004756;28;96950;-52
2020/12/20 08:02:41;;;;;;;5.05;1.73;;;;;;;24.21;32.75;101531.19;4981702;28;96936;-52
2020/12/20 08:05:10;;;;;;;2.80;0.80;;;;;;;24.18;32.45;101538.44;5006290;28;121214;-52
2020/12/20 08:07:35;;;;;;;2.95;1.33;;;;;;;24.14;32.58;101538.53;5010939;28;97398;-53
2020/12/20 08:10:01;;;;;;;2.00;1.00;;;;;;;24.12;32.59;101551.03;5012455;28;96845;-52
2020/12/20 08:12:26;;;;;;;3.47;1.10;;;;;;;24.11;32.73;101554.59;5011687;28;114629;-52
2020/12/20 08:15:07;;;;;;;3.25;1.02;;;;;;;24.09;32.86;101558.25;5011212;28;126924;-52
2020/12/20 08:17:34;;;;;;;1.90;1.10;;;;;;;24.10;32.48;101551.97;5012175;28;97218;-52
2020/12/20 08:20:02;;;;;;;2.95;1.13;;;;;;;24.11;32.82;101567.06;4994277;28;102549;-52
2020/12/20 08:22:27;;;;;;;2.30;1.00;;;;;;;24.10;32.53;101560.88;4998414;28;96775;-53
2020/12/20 08:24:53;;;;;;;2.47;1.25;;;;;;;24.11;32.58;101551.06;4998226;28;97699;-52
2020/12/20 08:27:22;;;;;;;3.92;1.33;;;;;;;24.10;32.84;101560.88;4981570;28;97390;-52
2020/12/20 08:29:52;;;;;;;2.78;1.20;;;;;;;24.12;32.61;101563.50;4997177;28;117322;-52
2020/12/20 08:32:24;;;;;;;2.15;1.10;;;;;;;24.12;32.62;101564.34;4996140;28;97347;-52
2020/12/20 08:34:50;;;;;;;3.53;1.30;;;;;;;24.13;32.45;101557.22;4994299;28;98181;-52
2020/12/20 08:37:17;;;;;;;2.33;0.90;;;;;;;24.13;32.59;101560.78;4995158;28;97330;-52
2020/12/20 08:39:42;;;;;;;2.22;0.90;;;;;;;24.13;32.81;101560.78;4995641;28;101052;-52
2020/12/20 08:42:12;;;;;;;2.92;1.17;;;;;;;24.14;32.52;101566.97;4995175;28;96704;-52
2020/12/20 08:44:39;;;;;;;4.57;1.80;;;;;;;24.14;32.52;101572.31;4991161;28;100177;-50
2020/12/20 08:47:09;;;;;;;6.50;1.70;;;;;;;24.09;32.68;101574.25;5002038;28;96975;-53
2020/12/20 08:49:35;;;;;;;3.90;1.60;;;;;;;24.06;32.76;101579.66;4996696;28;97123;-53
2020/12/20 08:52:11;;;;;;;3.35;1.40;;;;;;;24.01;32.65;101590.50;5015436;28;96837;-53
2020/12/20 08:54:36;;;;;;;3.92;1.58;;;;;;;24.01;32.93;101586.94;5014999;28;99325;-53
2020/12/20 08:57:10;;;;;;;3.15;1.25;;;;;;;24.00;32.65;101585.19;5014120;28;121245;-53
2020/12/20 08:59:45;;;;;;;5.05;1.75;;;;;;;23.99;33.00;101586.13;5014956;28;96676;-53
2020/12/20 09:02:24;;;;;;;2.83;1.40;;;;;;;23.99;32.93;101594.09;4995985;28;98000;-53
2020/12/20 09:05:04;;;;;;;5.47;1.52;;;;;;;23.99;33.06;101597.63;5015417;28;97681;-53
2020/12/20 09:07:34;;;;;;;3.10;1.40;;;;;;;24.01;33.05;101611.81;4992347;28;97348;-53
2020/12/20 09:10:09;;;;;;;3.03;1.23;;;;;;;24.03;33.09;101611.72;5015667;28;96806;-53
2020/12/20 09:12:35;;;;;;;2.72;1.10;;;;;;;24.02;32.71;101600.22;5014796;28;97796;-53
2020/12/20 09:15:10;;;;;;;3.80;1.30;;;;;;;24.02;33.14;101605.53;4997203;28;97521;-53
2020/12/20 09:17:39;;;;;;;4.18;1.70;;;;;;;24.05;32.93;101616.09;5012392;28;96843;-53
2020/12/20 09:20:08;;;;;;;4.82;1.40;;;;;;;24.06;33.07;101612.50;4990293;28;96925;-53
2020/12/20 09:22:48;;;;;;;3.85;1.20;;;;;;;24.06;32.79;101608.97;4995553;22;97139;-52
2020/12/20 09:25:15;;;;;;;4.28;1.30;;;;;;;24.08;32.79;101613.34;5001034;28;97597;-53
2020/12/20 09:27:51;;;;;;;3.40;1.50;;;;;;;24.08;33.06;101612.47;4974692;28;98390;-53
2020/12/20 09:30:16;;;;;;;2.42;1.10;;;;;;;24.09;32.86;101619.53;5002815;28;96755;-52
2020/12/20 09:32:42;;;;;;;3.78;1.20;;;;;;;24.10;32.70;101613.28;5013437;28;96912;-53
2020/12/20 09:35:08;;;;;;;3.35;1.33;;;;;;;24.10;32.71;101614.19;5012610;28;127407;-53
2020/12/20 09:37:41;;;;;;;2.35;1.10;;;;;;;24.10;32.79;101616.84;4996656;28;97337;-53
2020/12/20 09:40:06;;;;;;;3.17;1.10;;;;;;;24.12;32.98;101615.00;5012678;28;96870;-53
2020/12/20 09:42:39;;;;;;;2.03;1.05;;;;;;;24.12;32.90;101619.47;5013762;28;97037;-53
2020/12/20 09:45:05;;;;;;;3.75;1.25;;;;;;;24.13;32.89;101619.41;5011439;28;97406;-53
2020/12/20 09:47:36;;;;;;;2.75;0.90;;;;;;;24.14;32.66;101618.47;4976267;28;105255;-53
2020/12/20 09:50:01;;;;;;;2.35;1.02;;;;;;;24.16;32.72;101623.75;4973655;28;96734;-53
2020/12/20 09:52:27;;;;;;;3.42;1.27;;;;;;;24.17;32.97;101632.63;5003560;28;96792;-53
2020/12/20 09:54:52;;;;;;;3.28;1.30;;;;;;;24.17;32.57;101635.28;5013353;28;112256;-53
2020/12/20 09:57:18;;;;;;;2.15;1.08;;;;;;;24.18;32.71;101629.03;4976021;28;126287;-53
2020/12/20 09:59:43;;;;;;;1.95;1.10;;;;;;;24.19;32.99;101638.78;4977388;28;97078;-53
2020/12/20 10:02:09;;;;;;;5.05;1.25;;;;;;;24.20;32.61;101635.19;5008184;28;96744;-53
2020/12/20 10:04:34;;;;;;;2.25;0.88;;;;;;;24.20;32.87;101637.88;4976762;28;97833;-53
2020/12/20 10:07:00;;;;;;;4.68;1.27;;;;;;;24.20;32.56;101643.19;4996976;28;97123;-53
2020/12/20 10:09:25;;;;;;;1.90;0.93;;;;;;;24.22;32.85;101644.88;5005348;28;117480;-53
2020/12/20 10:11:51;;;;;;;2.13;0.95;;;;;;;24.21;32.58;101643.16;4960892;28;96969;-53
2020/12/20 10:14:16;;;;;;;2.78;1.10;;;;;;;24.23;32.59;101640.44;4994537;28;126936;-53
2020/12/20 10:16:42;;;;;;;2.83;1.05;;;;;;;24.23;32.69;101643.09;5014315;28;97259;-53
2020/12/20 10:19:07;;;;;;;2.08;0.90;;;;;;;24.24;32.78;101644.84;4992470;28;116967;-53
2020/12/20 10:21:33;;;;;;;2.42;1.00;;;;;;;24.24;32.53;101634.16;5013133;28;115195;-52
2020/12/20 10:23:58;;;;;;;3.30;1.17;;;;;;;24.24;32.58;101631.50;5012830;28;126761;-53
2020/12/20 10:26:28;;;;;;;3.35;0.98;;;;;;;24.24;32.48;101627.06;4978857;28;97686;-53
2020/12/20 10:28:53;;;;;;;2.50;1.00;;;;;;;24.25;32.62;101628.78;5014224;28;115655;-53
2020/12/20 10:31:21;;;;;;;1.77;0.90;;;;;;;24.26;32.86;101616.31;5013662;28;101794;-53
2020/12/20 10:33:46;;;;;;;1.20;0.80;;;;;;;24.25;32.50;101614.59;5013608;28;127101;-53
2020/12/20 10:36:13;;;;;;;2.72;0.90;;;;;;;24.26;32.68;101621.66;4995022;28;112128;-53
2020/12/20 10:38:39;;;;;;;2.28;1.00;;;;;;;24.26;32.54;101616.31;4996352;28;96671;-53
2020/12/20 10:41:05;;;;;;;1.98;0.82;;;;;;;24.26;32.74;101617.22;4995727;28;97129;-53
2020/12/20 10:43:31;;;;;;;1.73;0.88;;;;;;;24.26;32.67;101619.88;4977621;28;99663;-53
2020/12/20 10:45:56;;;;;;;2.45;1.27;;;;;;;24.26;32.65;101617.22;4985278;28;97338;-53
2020/12/20 10:48:22;;;;;;;2.47;0.80;;;;;;;24.27;32.54;101612.75;4976048;28;96711;-53
2020/12/20 10:50:48;;;;;;;1.80;0.88;;;;;;;24.27;32.64;101618.94;5005466;28;96787;-53
2020/12/20 10:53:13;;;;;;;1.80;0.90;;;;;;;24.26;32.63;101611.00;4989433;28;126761;-53
2020/12/20 10:55:39;;;;;;;1.70;0.70;;;;;;;24.27;32.44;101610.09;4988656;28;127064;-53
2020/12/20 10:58:04;;;;;;;2.75;0.80;;;;;;;24.28;32.58;101610.03;5006465;28;96660;-53
2020/12/20 11:00:29;;;;;;;2.90;1.00;;;;;;;24.27;32.86;101605.63;4980930;28;115815;-53
2020/12/20 11:02:55;;;;;;;1.70;0.95;;;;;;;24.28;32.58;101606.50;5012118;28;117542;-53
2020/12/20 11:05:21;;;;;;;1.55;0.88;;;;;;;24.28;32.84;101607.38;4993489;28;96888;-53
2020/12/20 11:07:47;;;;;;;2.08;0.88;;;;;;;24.29;32.77;101608.22;4958789;28;119858;-53
2020/12/20 11:10:13;;;;;;;1.98;0.98;;;;;;;24.28;32.75;101607.38;5007841;28;110491;-53
2020/12/20 11:12:38;;;;;;;2.67;0.90;;;;;;;24.28;32.45;101596.72;4995207;28;111311;-53
2020/12/20 11:15:05;;;;;;;1.70;0.77;;;;;;;24.29;32.63;101595.78;5012040;28;128877;-53
2020/12/20 11:17:30;;;;;;;2.50;0.70;;;;;;;24.30;32.70;101594.00;4993658;28;117216;-53
2020/12/20 11:19:56;;;;;;;1.45;0.77;;;;;;;24.29;32.71;101593.09;5004173;28;116649;-52
2020/12/20 11:22:21;;;;;;;2.60;0.90;;;;;;;24.29;32.52;101595.78;5002663;28;97508;-53
2020/12/20 11:24:47;;;;;;;1.80;0.80;;;;;;;24.30;32.64;101592.19;4989833;28;126538;-52
2020/12/20 11:27:12;;;;;;;2.92;1.15;;;;;;;24.31;32.51;101591.28;4988798;28;117855;-53
2020/12/20 11:29:39;;;;;;;2.60;1.00;;;;;;;24.30;32.57;101600.19;5007116;28;113141;-54
2020/12/20 11:32:05;;;;;;;2.10;1.00;;;;;;;24.28;32.47;101582.53;4991519;28;100215;-54
2020/12/20 11:34:30;;;;;;;7.55;1.60;;;;;;;24.28;32.59;101594.03;5010581;28;102852;-53